createdAt,value
2023-04-29T00:01:27.683Z,10.13
2023-04-29T00:03:54.911Z,10.12
2023-04-29T00:06:22.690Z,10.12
2023-04-29T00:08:50.076Z,10.09
2023-04-29T00:11:16.982Z,10.12
2023-04-29T00:13:43.979Z,10.14
2023-04-29T00:16:11.199Z,10.15
2023-04-29T00:18:38.520Z,10.15
2023-04-29T00:21:06.876Z,10.14
2023-04-29T00:23:34.358Z,10.12
2023-04-29T00:26:01.341Z,10.13
2023-04-29T00:28:28.527Z,10.15
2023-04-29T00:30:57.442Z,10.15
2023-04-29T00:33:24.451Z,10.12
2023-04-29T00:35:54.518Z,10.07
2023-04-29T00:38:50.589Z,10.00
2023-04-29T00:41:19.743Z,9.98
2023-04-29T00:43:48.745Z,9.96
2023-04-29T00:46:16.139Z,9.91
2023-04-29T00:48:43.128Z,9.85
2023-04-29T00:51:10.053Z,9.83
2023-04-29T00:53:37.771Z,9.81
2023-04-29T00:56:04.852Z,9.80
2023-04-29T00:58:35.504Z,9.80
2023-04-29T01:01:03.931Z,9.79
2023-04-29T01:03:31.830Z,9.82
2023-04-29T01:06:25.432Z,9.85
2023-04-29T01:09:34.031Z,9.86
2023-04-29T01:12:15.416Z,9.85
2023-04-29T01:14:43.902Z,9.87
2023-04-29T01:17:13.402Z,9.91
2023-04-29T01:19:50.708Z,9.91
2023-04-29T01:22:19.997Z,9.92
2023-04-29T01:24:49.602Z,9.96
2023-04-29T01:27:32.352Z,10.01
2023-04-29T01:30:17.359Z,10.03
2023-04-29T01:32:52.234Z,10.03
2023-04-29T01:35:39.899Z,10.03
2023-04-29T01:38:17.303Z,10.03
2023-04-29T01:40:49.890Z,10.02
2023-04-29T01:43:21.871Z,10.05
2023-04-29T01:45:48.982Z,10.04
2023-04-29T01:48:16.245Z,10.00
2023-04-29T01:50:44.246Z,9.96
2023-04-29T01:53:12.575Z,9.92
2023-04-29T01:55:40.111Z,9.89
2023-04-29T01:58:19.702Z,9.83
2023-04-29T02:00:49.580Z,9.79
2023-04-29T02:03:17.831Z,9.77
2023-04-29T02:05:48.259Z,9.76
2023-04-29T02:08:15.255Z,9.73
2023-04-29T02:10:52.994Z,9.69
2023-04-29T02:13:49.328Z,9.71
2023-04-29T02:16:16.629Z,9.73
2023-04-29T02:18:52.537Z,9.77
2023-04-29T02:21:21.137Z,9.82
2023-04-29T02:23:48.209Z,9.83
2023-04-29T02:26:15.628Z,9.82
2023-04-29T02:28:42.747Z,9.82
2023-04-29T02:31:09.800Z,9.83
2023-04-29T02:33:36.742Z,9.82
2023-04-29T02:36:04.055Z,9.80
2023-04-29T02:38:31.052Z,9.75
2023-04-29T02:40:58.289Z,9.73
2023-04-29T02:43:25.326Z,9.73
2023-04-29T02:45:52.423Z,9.69
2023-04-29T02:48:19.622Z,9.67
2023-04-29T02:50:46.875Z,9.66
2023-04-29T02:53:13.898Z,9.62
2023-04-29T02:55:40.909Z,9.57
2023-04-29T02:58:10.017Z,9.49
2023-04-29T03:00:36.990Z,9.45
2023-04-29T03:03:04.038Z,9.43
2023-04-29T03:05:32.122Z,9.39
2023-04-29T03:07:59.120Z,9.36
2023-04-29T03:10:26.180Z,9.35
2023-04-29T03:12:53.351Z,9.33
2023-04-29T03:15:20.331Z,9.31
2023-04-29T03:17:47.392Z,9.34
2023-04-29T03:20:14.424Z,9.33
2023-04-29T03:22:41.415Z,9.30
2023-04-29T03:25:10.766Z,9.28
2023-04-29T03:27:43.294Z,9.27
2023-04-29T03:30:10.536Z,9.27
2023-04-29T03:32:43.337Z,9.28
2023-04-29T03:35:13.545Z,9.30
2023-04-29T03:38:05.867Z,9.31
2023-04-29T03:40:33.739Z,9.29
2023-04-29T03:43:01.659Z,9.28
2023-04-29T03:45:28.691Z,9.28
2023-04-29T03:47:55.875Z,9.26
2023-04-29T03:50:23.460Z,9.24
2023-04-29T03:52:50.501Z,9.25
2023-04-29T03:55:18.638Z,9.27
2023-04-29T03:57:45.686Z,9.28
2023-04-29T04:00:13.361Z,9.28
2023-04-29T04:02:40.613Z,9.29
2023-04-29T04:05:08.882Z,9.29
2023-04-29T04:07:36.220Z,9.29
2023-04-29T04:10:23.481Z,9.26
2023-04-29T04:12:51.184Z,9.22
2023-04-29T04:15:18.403Z,9.20
2023-04-29T04:17:45.954Z,9.21
2023-04-29T04:20:13.358Z,9.24
2023-04-29T04:22:40.454Z,9.28
2023-04-29T04:25:17.083Z,9.27
2023-04-29T04:27:44.151Z,9.29
2023-04-29T04:30:14.676Z,9.33
2023-04-29T04:32:41.760Z,9.38
2023-04-29T04:35:09.079Z,9.44
2023-04-29T04:37:36.069Z,9.49
2023-04-29T04:40:03.456Z,9.54
2023-04-29T04:42:33.092Z,9.57
2023-04-29T04:45:00.283Z,9.59
2023-04-29T04:47:43.212Z,9.59
2023-04-29T04:50:21.645Z,9.61
2023-04-29T04:52:49.808Z,9.63
2023-04-29T04:55:40.758Z,9.65
2023-04-29T04:58:07.927Z,9.65
2023-04-29T05:00:36.360Z,9.65
2023-04-29T05:03:03.847Z,9.64
2023-04-29T05:05:31.000Z,9.65
2023-04-29T05:07:58.018Z,9.66
2023-04-29T05:10:31.840Z,9.65
2023-04-29T05:12:59.986Z,9.67
2023-04-29T05:15:27.630Z,9.68
2023-04-29T05:17:56.585Z,9.69
2023-04-29T05:20:24.215Z,9.69
2023-04-29T05:22:51.220Z,9.69
2023-04-29T05:25:21.125Z,9.68
2023-04-29T05:27:48.650Z,9.66
2023-04-29T05:30:19.279Z,9.65
2023-04-29T05:32:46.810Z,9.67
2023-04-29T05:35:16.619Z,9.69
2023-04-29T05:37:44.452Z,9.70
2023-04-29T05:40:35.484Z,9.72
2023-04-29T05:43:37.996Z,9.76
2023-04-29T05:46:06.262Z,9.78
2023-04-29T05:48:33.292Z,9.82
2023-04-29T05:51:00.443Z,9.86
2023-04-29T05:53:27.500Z,9.90
2023-04-29T05:55:54.607Z,9.98
2023-04-29T05:58:21.663Z,10.02
2023-04-29T06:00:49.813Z,10.04
2023-04-29T06:03:20.637Z,10.03
2023-04-29T06:05:52.104Z,10.04
2023-04-29T06:08:31.827Z,10.04
2023-04-29T06:11:05.504Z,10.03
2023-04-29T06:13:33.353Z,10.02
2023-04-29T06:16:00.403Z,10.02
2023-04-29T06:18:31.445Z,10.03
2023-04-29T06:20:59.413Z,10.03
2023-04-29T06:23:26.833Z,10.08
2023-04-29T06:25:54.689Z,10.13
2023-04-29T06:28:22.424Z,10.16
2023-04-29T06:30:50.396Z,10.20
2023-04-29T06:33:18.357Z,10.23
2023-04-29T06:35:45.337Z,10.28
2023-04-29T06:38:35.725Z,10.33
2023-04-29T06:41:23.913Z,10.34
2023-04-29T06:44:05.658Z,10.38
2023-04-29T06:46:58.928Z,10.45
2023-04-29T06:49:46.569Z,10.45
2023-04-29T06:52:13.996Z,10.44
2023-04-29T06:54:43.566Z,10.47
2023-04-29T06:57:12.642Z,10.51
2023-04-29T06:59:39.644Z,10.55
2023-04-29T07:02:06.677Z,10.61
2023-04-29T07:04:33.934Z,10.66
2023-04-29T07:07:01.059Z,10.71
2023-04-29T07:09:28.121Z,10.74
2023-04-29T07:11:55.684Z,10.76
2023-04-29T07:14:23.304Z,10.78
2023-04-29T07:16:54.765Z,10.79
2023-04-29T07:19:21.972Z,10.79
2023-04-29T07:21:49.327Z,10.81
2023-04-29T07:24:16.433Z,10.85
2023-04-29T07:26:46.108Z,10.88
2023-04-29T07:29:15.551Z,10.92
2023-04-29T07:31:42.644Z,10.96
2023-04-29T07:34:09.865Z,11.01
2023-04-29T07:36:36.900Z,11.09
2023-04-29T07:39:03.996Z,11.15
2023-04-29T07:41:32.052Z,11.21
2023-04-29T07:43:59.771Z,11.23
2023-04-29T07:46:26.848Z,11.23
2023-04-29T07:48:53.949Z,11.20
2023-04-29T07:51:22.049Z,11.15
2023-04-29T07:53:49.156Z,11.13
2023-04-29T07:56:16.392Z,11.13
2023-04-29T07:58:43.428Z,11.12
2023-04-29T08:01:12.449Z,11.09
2023-04-29T08:03:42.159Z,11.13
2023-04-29T08:06:12.322Z,11.15
2023-04-29T08:08:42.438Z,11.19
2023-04-29T08:11:18.733Z,11.23
2023-04-29T08:13:45.945Z,11.22
2023-04-29T08:16:13.731Z,11.20
2023-04-29T08:18:40.977Z,11.20
2023-04-29T08:21:09.602Z,11.21
2023-04-29T08:23:36.700Z,11.22
2023-04-29T08:26:03.869Z,11.17
2023-04-29T08:28:31.288Z,11.10
2023-04-29T08:31:00.941Z,11.04
2023-04-29T08:33:28.816Z,10.99
2023-04-29T08:36:00.451Z,10.98
2023-04-29T08:38:28.174Z,11.02
2023-04-29T08:40:56.617Z,11.02
2023-04-29T08:43:24.064Z,11.03
2023-04-29T08:45:51.147Z,11.03
2023-04-29T08:48:18.905Z,11.01
2023-04-29T08:50:46.137Z,10.99
2023-04-29T08:53:14.528Z,10.97
2023-04-29T08:55:45.973Z,10.96
2023-04-29T08:58:13.961Z,10.97
2023-04-29T09:00:42.753Z,10.97
2023-04-29T09:03:30.513Z,10.96
2023-04-29T09:06:00.169Z,10.97
2023-04-29T09:08:27.547Z,11.03
2023-04-29T09:10:54.721Z,11.09
2023-04-29T09:13:32.775Z,11.18
2023-04-29T09:15:59.872Z,11.28
2023-04-29T09:18:50.419Z,11.34
2023-04-29T09:21:22.686Z,11.35
2023-04-29T09:23:57.455Z,11.32
2023-04-29T09:26:25.255Z,11.33
2023-04-29T09:29:14.203Z,11.34
2023-04-29T09:31:44.053Z,11.33
2023-04-29T09:34:12.045Z,11.32
2023-04-29T09:36:45.258Z,11.32
2023-04-29T09:39:17.608Z,11.33
2023-04-29T09:41:51.563Z,11.32
2023-04-29T09:44:25.150Z,11.30
2023-04-29T09:47:02.829Z,11.28
2023-04-29T09:49:37.642Z,11.29
2023-04-29T09:52:06.860Z,11.31
2023-04-29T09:54:36.649Z,11.35
2023-04-29T09:57:06.648Z,11.33
2023-04-29T09:59:38.188Z,11.29
2023-04-29T10:02:16.151Z,11.27
2023-04-29T10:04:45.774Z,11.25
2023-04-29T10:07:17.276Z,11.24
2023-04-29T10:09:46.613Z,11.21
2023-04-29T10:12:20.662Z,11.17
2023-04-29T10:15:02.449Z,11.14
2023-04-29T10:18:15.746Z,11.17
2023-04-29T10:20:47.387Z,11.19
2023-04-29T10:23:15.367Z,11.20
2023-04-29T10:25:43.345Z,11.20
2023-04-29T10:28:16.577Z,11.24
2023-04-29T10:30:50.801Z,11.25
2023-04-29T10:33:17.954Z,11.23
2023-04-29T10:35:45.947Z,11.24
2023-04-29T10:38:20.569Z,11.25
2023-04-29T10:40:47.676Z,11.25
2023-04-29T10:43:15.147Z,11.26
2023-04-29T10:45:42.433Z,11.28
2023-04-29T10:48:12.168Z,11.28
2023-04-29T10:50:48.574Z,11.29
2023-04-29T10:53:16.425Z,11.32
2023-04-29T10:55:43.908Z,11.35
2023-04-29T10:58:42.861Z,11.37
2023-04-29T11:01:54.371Z,11.37
2023-04-29T11:04:23.173Z,11.34
2023-04-29T11:07:02.818Z,11.29
2023-04-29T11:09:31.530Z,11.23
2023-04-29T11:12:03.642Z,11.13
2023-04-29T11:14:30.894Z,11.06
2023-04-29T11:17:05.521Z,11.00
2023-04-29T11:19:35.156Z,10.96
2023-04-29T11:22:12.237Z,10.93
2023-04-29T11:25:02.153Z,10.91
2023-04-29T11:27:37.741Z,10.88
2023-04-29T11:30:07.345Z,10.87
2023-04-29T11:32:36.298Z,10.88
2023-04-29T11:35:17.369Z,10.87
2023-04-29T11:37:45.846Z,10.87
2023-04-29T11:40:13.753Z,10.88
2023-04-29T11:42:45.982Z,10.91
2023-04-29T11:45:13.534Z,10.95
2023-04-29T11:47:43.719Z,10.99
2023-04-29T11:50:11.321Z,10.99
2023-04-29T11:52:40.047Z,11.00
2023-04-29T11:55:16.234Z,11.02
2023-04-29T11:57:43.846Z,11.04
2023-04-29T12:00:15.545Z,11.06
2023-04-29T12:02:45.288Z,11.10
2023-04-29T12:05:13.830Z,11.14
2023-04-29T12:07:41.254Z,11.14
2023-04-29T12:10:11.162Z,11.14
2023-04-29T12:12:41.671Z,11.17
2023-04-29T12:15:10.592Z,11.19
2023-04-29T12:17:38.037Z,11.16
2023-04-29T12:20:06.827Z,11.14
2023-04-29T12:22:33.968Z,11.12
2023-04-29T12:25:03.730Z,11.14
2023-04-29T12:27:30.790Z,11.19
2023-04-29T12:30:01.551Z,11.26
2023-04-29T12:32:28.629Z,11.31
2023-04-29T12:34:56.140Z,11.34
2023-04-29T12:37:26.546Z,11.38
2023-04-29T12:39:55.556Z,11.46
2023-04-29T12:42:22.613Z,11.53
2023-04-29T12:44:49.810Z,11.56
2023-04-29T12:47:17.047Z,11.54
2023-04-29T12:49:48.270Z,11.52
2023-04-29T12:52:15.387Z,11.57
2023-04-29T12:54:44.184Z,11.63
2023-04-29T12:57:12.357Z,11.69
2023-04-29T12:59:41.723Z,11.75
2023-04-29T13:02:12.550Z,11.77
2023-04-29T13:04:40.147Z,11.76
2023-04-29T13:07:07.516Z,11.71
2023-04-29T13:09:35.895Z,11.71
2023-04-29T13:12:03.054Z,11.72
2023-04-29T13:14:30.171Z,11.71
2023-04-29T13:16:57.282Z,11.70
2023-04-29T13:19:43.515Z,11.70
2023-04-29T13:22:11.608Z,11.70
2023-04-29T13:24:38.668Z,11.71
2023-04-29T13:27:06.067Z,11.69
2023-04-29T13:29:33.110Z,11.66
2023-04-29T13:32:00.231Z,11.68
2023-04-29T13:34:27.208Z,11.69
2023-04-29T13:36:54.478Z,11.69
2023-04-29T13:39:23.403Z,11.69
2023-04-29T13:41:51.172Z,11.67
2023-04-29T13:44:29.544Z,11.64
2023-04-29T13:47:01.850Z,11.61
2023-04-29T13:50:02.139Z,11.62
2023-04-29T13:55:12.341Z,11.76
2023-04-29T14:00:19.130Z,11.81
2023-04-29T14:05:22.566Z,11.74
2023-04-29T14:07:49.723Z,11.68
2023-04-29T14:10:18.726Z,11.65
2023-04-29T14:12:46.520Z,11.64
2023-04-29T14:15:13.648Z,11.64
2023-04-29T14:17:40.915Z,11.64
2023-04-29T14:20:08.641Z,11.65
2023-04-29T14:22:36.348Z,11.64
2023-04-29T14:25:04.635Z,11.59
2023-04-29T14:27:31.814Z,11.56
2023-04-29T14:29:58.964Z,11.55
2023-04-29T14:32:26.168Z,11.55
2023-04-29T14:34:56.075Z,11.54
2023-04-29T14:37:34.258Z,11.55
2023-04-29T14:40:02.346Z,11.52
2023-04-29T14:42:29.386Z,11.50
2023-04-29T14:44:56.356Z,11.49
2023-04-29T14:47:23.482Z,11.52
2023-04-29T14:49:50.393Z,11.56
2023-04-29T14:52:17.380Z,11.60
2023-04-29T14:54:44.956Z,11.61
2023-04-29T14:57:12.304Z,11.62
2023-04-29T14:59:39.309Z,11.66
2023-04-29T15:02:07.078Z,11.69
2023-04-29T15:04:34.188Z,11.68
2023-04-29T15:07:01.209Z,11.69
2023-04-29T15:09:28.264Z,11.70
2023-04-29T15:11:55.210Z,11.70
2023-04-29T15:14:22.427Z,11.66
2023-04-29T15:16:49.480Z,11.67
2023-04-29T15:19:16.954Z,11.67
2023-04-29T15:21:43.916Z,11.67
2023-04-29T15:24:10.904Z,11.64
2023-04-29T15:26:38.318Z,11.61
2023-04-29T15:29:05.461Z,11.63
2023-04-29T15:31:32.747Z,11.66
2023-04-29T15:33:59.859Z,11.68
2023-04-29T15:36:32.395Z,11.68
2023-04-29T15:38:59.379Z,11.66
2023-04-29T15:41:26.741Z,11.66
2023-04-29T15:43:54.973Z,11.66
2023-04-29T15:46:25.184Z,11.67
2023-04-29T15:48:52.895Z,11.66
2023-04-29T15:51:21.013Z,11.65
2023-04-29T15:56:33.548Z,11.67
2023-04-29T15:59:00.780Z,11.66
2023-04-29T16:01:28.328Z,11.64
2023-04-29T16:03:55.602Z,11.64
2023-04-29T16:06:23.349Z,11.64
2023-04-29T16:08:50.523Z,11.65
2023-04-29T16:11:17.487Z,11.67
2023-04-29T16:13:44.576Z,11.67
2023-04-29T16:16:11.555Z,11.65
2023-04-29T16:18:38.860Z,11.64
2023-04-29T16:21:06.253Z,11.61
2023-04-29T16:23:33.267Z,11.59
2023-04-29T16:26:00.731Z,11.54
2023-04-29T16:28:29.175Z,11.47
2023-04-29T16:30:56.227Z,11.42
2023-04-29T16:33:23.371Z,11.35
2023-04-29T16:35:50.653Z,11.31
2023-04-29T16:38:18.059Z,11.28
2023-04-29T16:40:45.418Z,11.25
2023-04-29T16:43:14.714Z,11.21
2023-04-29T16:45:41.940Z,11.20
2023-04-29T16:48:09.490Z,11.19
2023-04-29T16:50:37.780Z,11.16
2023-04-29T16:53:04.856Z,11.13
2023-04-29T16:55:32.107Z,11.12
2023-04-29T16:57:59.276Z,11.14
2023-04-29T17:00:27.122Z,11.14
2023-04-29T17:02:58.519Z,11.12
2023-04-29T17:05:28.732Z,11.11
2023-04-29T17:07:56.107Z,11.11
2023-04-29T17:10:23.256Z,11.11
2023-04-29T17:12:50.618Z,11.08
2023-04-29T17:15:17.764Z,11.08
2023-04-29T17:17:44.900Z,11.09
2023-04-29T17:20:13.457Z,11.09
2023-04-29T17:22:41.074Z,11.09
2023-04-29T17:25:09.369Z,11.12
2023-04-29T17:27:37.707Z,11.13
2023-04-29T17:30:06.497Z,11.14
2023-04-29T17:32:39.306Z,11.17
2023-04-29T17:35:08.316Z,11.20
2023-04-29T17:37:35.571Z,11.20
2023-04-29T17:40:02.999Z,11.17
2023-04-29T17:42:30.124Z,11.17
2023-04-29T17:44:57.196Z,11.17
2023-04-29T17:47:24.244Z,11.16
2023-04-29T17:49:52.355Z,11.12
2023-04-29T17:52:21.600Z,11.08
2023-04-29T17:54:49.114Z,11.04
2023-04-29T17:57:16.280Z,11.01
2023-04-29T17:59:43.460Z,10.96
2023-04-29T18:02:11.155Z,10.93
2023-04-29T18:04:38.381Z,10.94
2023-04-29T18:07:06.114Z,10.94
2023-04-29T18:09:35.268Z,10.92
2023-04-29T18:12:02.628Z,10.91
2023-04-29T18:14:31.135Z,10.91
2023-04-29T18:17:00.076Z,10.86
2023-04-29T18:19:27.891Z,10.81
2023-04-29T18:21:59.588Z,10.78
2023-04-29T18:24:26.614Z,10.77
2023-04-29T18:26:53.894Z,10.76
2023-04-29T18:29:21.167Z,10.74
2023-04-29T18:31:48.435Z,10.73
2023-04-29T18:34:16.231Z,10.69
2023-04-29T18:36:43.309Z,10.63
2023-04-29T18:39:10.667Z,10.57
2023-04-29T18:41:37.954Z,10.52
2023-04-29T18:44:05.004Z,10.51
2023-04-29T18:46:32.127Z,10.52
2023-04-29T18:48:59.426Z,10.53
2023-04-29T18:51:26.583Z,10.53
2023-04-29T18:53:53.728Z,10.54
2023-04-29T18:56:21.657Z,10.55
2023-04-29T18:58:49.753Z,10.58
2023-04-29T19:01:17.282Z,10.59
2023-04-29T19:03:44.427Z,10.60
2023-04-29T19:06:11.453Z,10.59
2023-04-29T19:08:38.595Z,10.56
2023-04-29T19:11:06.013Z,10.57
2023-04-29T19:13:32.908Z,10.59
2023-04-29T19:16:00.237Z,10.58
2023-04-29T19:18:29.538Z,10.53
2023-04-29T19:20:56.828Z,10.45
2023-04-29T19:23:23.937Z,10.43
2023-04-29T19:25:51.051Z,10.42
2023-04-29T19:28:18.172Z,10.42
2023-04-29T19:30:45.368Z,10.42
2023-04-29T19:33:12.472Z,10.44
2023-04-29T19:35:39.698Z,10.47
2023-04-29T19:38:07.016Z,10.53
2023-04-29T19:40:34.202Z,10.58
2023-04-29T19:43:01.378Z,10.61
2023-04-29T19:45:28.458Z,10.64
2023-04-29T19:47:55.622Z,10.65
2023-04-29T19:50:22.988Z,10.65
2023-04-29T19:52:50.097Z,10.62
2023-04-29T19:55:17.156Z,10.60
2023-04-29T19:57:44.290Z,10.56
2023-04-29T20:00:15.153Z,10.55
2023-04-29T20:02:42.554Z,10.58
2023-04-29T20:05:13.716Z,10.58
2023-04-29T20:07:41.563Z,10.55
2023-04-29T20:10:08.918Z,10.57
2023-04-29T20:12:36.216Z,10.60
2023-04-29T20:15:06.068Z,10.61
2023-04-29T20:17:33.247Z,10.61
2023-04-29T20:20:00.194Z,10.60
2023-04-29T20:22:27.313Z,10.60
2023-04-29T20:24:54.408Z,10.60
2023-04-29T20:27:21.357Z,10.61
2023-04-29T20:29:48.712Z,10.61
2023-04-29T20:32:16.303Z,10.60
2023-04-29T20:34:43.427Z,10.57
2023-04-29T20:37:10.417Z,10.56
2023-04-29T20:39:38.036Z,10.53
2023-04-29T20:42:05.521Z,10.58
2023-04-29T20:44:35.171Z,10.57
2023-04-29T20:47:03.505Z,10.60
2023-04-29T20:49:30.677Z,10.63
2023-04-29T20:52:00.457Z,10.65
2023-04-29T20:54:27.841Z,10.67
2023-04-29T20:56:54.797Z,10.69
2023-04-29T20:59:21.728Z,10.69
2023-04-29T21:01:48.831Z,10.67
2023-04-29T21:04:15.829Z,10.66
2023-04-29T21:06:42.794Z,10.63
2023-04-29T21:09:13.311Z,10.58
2023-04-29T21:11:40.242Z,10.55
2023-04-29T21:14:08.010Z,10.52
2023-04-29T21:16:35.440Z,10.50
2023-04-29T21:19:02.341Z,10.48
2023-04-29T21:21:29.721Z,10.48
2023-04-29T21:23:56.906Z,10.48
2023-04-29T21:26:24.352Z,10.49
2023-04-29T21:28:51.746Z,10.49
2023-04-29T21:31:18.873Z,10.52
2023-04-29T21:33:46.212Z,10.56
2023-04-29T21:36:13.923Z,10.56
2023-04-29T21:38:43.034Z,10.53
2023-04-29T21:41:26.726Z,10.48
2023-04-29T21:43:57.913Z,10.43
2023-04-29T21:46:27.102Z,10.38
2023-04-29T21:48:55.068Z,10.35
2023-04-29T21:51:23.008Z,10.34
2023-04-29T21:53:50.949Z,10.34
2023-04-29T21:56:17.948Z,10.35
2023-04-29T21:58:45.043Z,10.33
2023-04-29T22:01:39.708Z,10.30
2023-04-29T22:04:06.871Z,10.28
2023-04-29T22:06:34.724Z,10.26
2023-04-29T22:09:01.999Z,10.25
2023-04-29T22:11:29.091Z,10.25
2023-04-29T22:13:56.088Z,10.27
2023-04-29T22:16:23.704Z,10.23
2023-04-29T22:18:51.840Z,10.22
2023-04-29T22:21:18.975Z,10.24
2023-04-29T22:23:46.356Z,10.23
2023-04-29T22:26:13.404Z,10.22
2023-04-29T22:28:40.454Z,10.20
2023-04-29T22:31:07.492Z,10.18
2023-04-29T22:33:35.289Z,10.15
2023-04-29T22:36:02.557Z,10.14
2023-04-29T22:38:29.790Z,10.12
2023-04-29T22:40:56.927Z,10.11
2023-04-29T22:43:24.081Z,10.07
2023-04-29T22:45:54.596Z,10.02
2023-04-29T22:48:21.910Z,9.97
2023-04-29T22:50:56.546Z,9.94
2023-04-29T22:53:23.526Z,9.92
2023-04-29T22:55:51.987Z,9.88
2023-04-29T22:58:19.848Z,9.86
2023-04-29T23:00:49.551Z,9.83
2023-04-29T23:03:16.544Z,9.82
2023-04-29T23:05:43.448Z,9.81
2023-04-29T23:08:10.996Z,9.78
2023-04-29T23:10:38.091Z,9.74
2023-04-29T23:13:04.975Z,9.71
2023-04-29T23:18:33.950Z,9.69
2023-04-29T23:21:01.008Z,9.65
2023-04-29T23:23:27.994Z,9.64
2023-04-29T23:25:54.976Z,9.61
2023-04-29T23:28:22.066Z,9.58
2023-04-29T23:30:49.057Z,9.54
2023-04-29T23:33:16.106Z,9.51
2023-04-29T23:35:49.987Z,9.47
2023-04-29T23:38:18.031Z,9.44
2023-04-29T23:40:46.642Z,9.43
2023-04-29T23:43:15.105Z,9.42
2023-04-29T23:45:45.389Z,9.41
2023-04-29T23:48:12.467Z,9.40
2023-04-29T23:50:39.454Z,9.41
2023-04-29T23:53:06.547Z,9.42
2023-04-29T23:55:34.657Z,9.44
2023-04-29T23:58:01.650Z,9.49
